createdAt,value
2019-03-29T00:02:18.095Z,14.80
2019-03-29T00:07:20.357Z,11.83
2019-03-29T00:12:22.937Z,16.23
2019-03-29T00:17:25.210Z,13.97
2019-03-29T00:22:27.487Z,15.17
2019-03-29T00:27:29.790Z,13.27
2019-03-29T00:32:32.720Z,18.73
2019-03-29T00:37:35.000Z,17.07
2019-03-29T00:42:37.297Z,14.03
2019-03-29T00:47:39.581Z,16.63
2019-03-29T00:52:43.000Z,20.23
2019-03-29T00:57:45.339Z,17.77
2019-03-29T01:02:47.636Z,20.27
2019-03-29T01:07:49.933Z,17.20
2019-03-29T01:12:52.566Z,15.88
2019-03-29T01:17:54.843Z,16.03
2019-03-29T01:22:57.297Z,19.43
2019-03-29T01:28:00.178Z,15.13
2019-03-29T01:33:02.481Z,14.07
2019-03-29T01:38:04.783Z,24.27
2019-03-29T01:43:07.803Z,17.50
2019-03-29T01:48:10.188Z,14.87
2019-03-29T01:53:12.470Z,14.47
2019-03-29T01:58:15.057Z,16.62
2019-03-29T02:03:17.355Z,15.03
2019-03-29T02:08:19.643Z,19.43
2019-03-29T02:13:22.203Z,18.17
2019-03-29T02:18:24.456Z,23.27
2019-03-29T02:23:26.856Z,21.90
2019-03-29T02:28:29.195Z,17.10
2019-03-29T02:33:31.501Z,25.07
2019-03-29T02:38:34.011Z,19.20
2019-03-29T02:43:36.314Z,17.40
2019-03-29T02:48:38.608Z,15.57
2019-03-29T02:53:40.896Z,16.70
2019-03-29T02:58:43.184Z,16.93
2019-03-29T03:03:45.477Z,16.40
2019-03-29T03:08:47.768Z,16.50
2019-03-29T03:13:50.097Z,16.13
2019-03-29T03:18:52.361Z,20.65
2019-03-29T03:23:54.667Z,16.87
2019-03-29T03:28:56.991Z,21.63
2019-03-29T03:33:59.323Z,16.30
2019-03-29T03:39:01.623Z,14.23
2019-03-29T03:44:03.979Z,16.57
2019-03-29T03:49:07.223Z,16.47
2019-03-29T03:54:09.782Z,17.03
2019-03-29T03:59:12.088Z,18.13
2019-03-29T04:04:14.413Z,15.17
2019-03-29T04:09:17.047Z,16.53
2019-03-29T04:14:19.391Z,16.30
2019-03-29T04:19:21.697Z,17.53
2019-03-29T04:24:23.933Z,18.53
2019-03-29T04:29:26.508Z,19.50
2019-03-29T04:34:29.550Z,15.77
2019-03-29T04:39:31.798Z,14.90
2019-03-29T04:44:34.096Z,15.00
2019-03-29T04:49:36.376Z,14.07
2019-03-29T04:54:38.661Z,15.30
2019-03-29T04:59:40.913Z,22.37
2019-03-29T05:04:43.249Z,16.80
2019-03-29T05:09:45.528Z,15.93
2019-03-29T05:14:47.795Z,19.48
2019-03-29T05:19:50.086Z,18.63
2019-03-29T05:24:52.755Z,16.70
2019-03-29T05:29:55.100Z,17.42
2019-03-29T05:34:57.377Z,19.23
2019-03-29T05:39:59.778Z,17.10
2019-03-29T05:45:02.796Z,20.97
2019-03-29T05:50:06.052Z,18.13
2019-03-29T05:55:08.423Z,15.87
2019-03-29T06:00:12.541Z,15.97
2019-03-29T06:05:14.831Z,18.50
2019-03-29T06:10:17.296Z,21.47
2019-03-29T06:15:19.590Z,20.63
2019-03-29T06:20:21.881Z,20.47
2019-03-29T06:25:24.310Z,20.47
2019-03-29T06:30:29.638Z,21.27
2019-03-29T06:35:33.496Z,18.27
2019-03-29T06:40:35.791Z,19.20
2019-03-29T06:45:47.705Z,19.87
2019-03-29T06:50:42.247Z,19.93
2019-03-29T06:55:44.638Z,22.15
2019-03-29T07:00:46.913Z,23.00
2019-03-29T07:05:49.262Z,21.95
2019-03-29T07:10:51.567Z,24.37
2019-03-29T07:15:54.224Z,21.23
2019-03-29T07:20:56.522Z,18.67
2019-03-29T07:25:58.836Z,18.53
2019-03-29T07:31:01.191Z,17.75
2019-03-29T07:36:03.487Z,15.98
2019-03-29T07:41:05.763Z,17.92
2019-03-29T07:46:08.041Z,17.62
2019-03-29T07:51:10.343Z,14.83
2019-03-29T07:56:12.820Z,14.85
2019-03-29T08:01:15.444Z,14.63
2019-03-29T08:06:17.757Z,14.40
2019-03-29T08:11:25.888Z,14.20
2019-03-29T08:16:24.677Z,17.48
2019-03-29T08:21:27.037Z,15.80
2019-03-29T08:26:29.310Z,13.35
2019-03-29T08:31:31.853Z,12.95
2019-03-29T08:36:34.158Z,13.13
2019-03-29T08:41:36.470Z,13.75
2019-03-29T08:46:38.793Z,13.72
2019-03-29T08:51:41.579Z,13.70
2019-03-29T08:56:44.019Z,13.80
2019-03-29T09:01:46.280Z,12.33
2019-03-29T09:06:53.828Z,12.50
2019-03-29T09:11:52.693Z,12.07
2019-03-29T09:16:54.981Z,12.20
2019-03-29T09:21:57.247Z,11.96
2019-03-29T09:26:59.519Z,11.80
2019-03-29T09:32:01.797Z,11.65
2019-03-29T09:37:04.107Z,11.53
2019-03-29T09:42:09.389Z,11.15
2019-03-29T09:47:10.512Z,14.00
2019-03-29T09:52:12.802Z,12.00
2019-03-29T09:57:15.748Z,13.25
2019-03-29T10:02:18.163Z,11.70
2019-03-29T10:07:20.539Z,11.53
2019-03-29T10:12:22.813Z,12.58
2019-03-29T10:17:25.117Z,11.15
2019-03-29T10:22:27.474Z,10.40
2019-03-29T10:27:29.982Z,9.28
2019-03-29T10:32:32.277Z,10.58
2019-03-29T10:37:34.688Z,11.60
2019-03-29T10:42:39.805Z,10.60
2019-03-29T10:47:43.972Z,10.48
2019-03-29T10:52:45.027Z,10.45
2019-03-29T10:57:47.316Z,14.85
2019-03-29T11:02:49.663Z,10.82
2019-03-29T11:07:52.118Z,9.33
2019-03-29T11:12:54.416Z,10.93
2019-03-29T11:17:57.012Z,9.05
2019-03-29T11:22:59.306Z,9.88
2019-03-29T11:28:01.663Z,17.17
2019-03-29T11:33:04.047Z,10.98
2019-03-29T11:38:06.385Z,11.18
2019-03-29T11:43:10.848Z,11.33
2019-03-29T11:48:12.758Z,10.80
2019-03-29T11:53:15.058Z,13.00
2019-03-29T11:58:17.456Z,11.48
2019-03-29T12:03:19.827Z,15.32
2019-03-29T12:08:22.186Z,10.50
2019-03-29T12:13:24.555Z,11.08
2019-03-29T12:18:26.853Z,13.50
2019-03-29T12:23:29.273Z,10.30
2019-03-29T12:28:31.692Z,11.55
2019-03-29T12:33:34.095Z,10.20
2019-03-29T12:38:37.448Z,10.70
2019-03-29T12:43:39.833Z,10.60
2019-03-29T12:48:42.178Z,11.05
2019-03-29T12:53:44.554Z,8.28
2019-03-29T12:58:46.884Z,9.58
2019-03-29T13:03:49.270Z,12.65
2019-03-29T13:08:51.645Z,10.77
2019-03-29T13:13:54.051Z,7.20
2019-03-29T13:18:56.396Z,14.68
2019-03-29T13:23:58.663Z,8.65
2019-03-29T13:29:01.345Z,10.72
2019-03-29T13:34:03.782Z,10.98
2019-03-29T13:39:07.191Z,8.50
2019-03-29T13:44:22.948Z,8.35
2019-03-29T13:49:13.482Z,8.88
2019-03-29T13:54:15.866Z,8.88
2019-03-29T13:59:18.140Z,8.20
2019-03-29T14:04:20.436Z,6.83
2019-03-29T14:09:22.809Z,9.30
2019-03-29T14:14:37.646Z,8.58
2019-03-29T14:19:29.203Z,10.68
2019-03-29T14:24:31.609Z,8.58
2019-03-29T14:29:33.885Z,6.72
2019-03-29T14:34:36.176Z,6.60
2019-03-29T14:39:38.480Z,10.25
2019-03-29T14:44:51.653Z,6.90
2019-03-29T14:49:44.932Z,9.25
2019-03-29T14:54:47.215Z,5.85
2019-03-29T14:59:49.616Z,8.05
2019-03-29T15:04:52.252Z,7.12
2019-03-29T15:09:55.156Z,6.05
2019-03-29T15:15:06.137Z,6.20
2019-03-29T15:20:01.993Z,7.33
2019-03-29T15:25:05.060Z,8.26
2019-03-29T15:30:07.422Z,6.30
2019-03-29T15:35:09.871Z,5.30
2019-03-29T15:40:12.341Z,10.00
2019-03-29T15:45:20.807Z,6.10
2019-03-29T15:50:18.752Z,5.95
2019-03-29T15:55:21.016Z,6.03
2019-03-29T16:00:23.393Z,6.37
2019-03-29T16:05:25.932Z,6.08
2019-03-29T16:10:28.278Z,7.75
2019-03-29T16:15:36.453Z,6.53
2019-03-29T16:20:35.557Z,7.53
2019-03-29T16:25:37.850Z,6.65
2019-03-29T16:30:40.233Z,11.88
2019-03-29T16:35:42.556Z,10.13
2019-03-29T16:40:44.847Z,8.55
2019-03-29T16:45:48.413Z,11.55
2019-03-29T16:50:50.877Z,6.35
2019-03-29T16:55:53.290Z,7.87
2019-03-29T17:00:55.601Z,6.35
2019-03-29T17:05:57.977Z,9.08
2019-03-29T17:11:00.292Z,7.30
2019-03-29T17:16:02.610Z,5.43
2019-03-29T17:21:05.054Z,8.28
2019-03-29T17:26:07.517Z,6.37
2019-03-29T17:31:11.438Z,8.00
2019-03-29T17:36:13.786Z,9.13
2019-03-29T17:41:16.057Z,6.10
2019-03-29T17:46:18.399Z,6.53
2019-03-29T17:51:20.767Z,8.30
2019-03-29T17:56:23.091Z,7.12
2019-03-29T18:01:25.514Z,6.80
2019-03-29T18:06:27.968Z,7.75
2019-03-29T18:11:30.332Z,13.03
2019-03-29T18:16:32.686Z,7.40
2019-03-29T18:21:35.213Z,9.23
2019-03-29T18:26:37.731Z,10.03
2019-03-29T18:31:40.361Z,8.18
2019-03-29T18:36:43.628Z,11.68
2019-03-29T18:41:45.931Z,10.82
2019-03-29T18:46:48.250Z,10.90
2019-03-29T18:51:50.558Z,13.45
2019-03-29T18:56:52.917Z,10.04
2019-03-29T19:01:55.240Z,6.67
2019-03-29T19:06:57.632Z,9.73
2019-03-29T19:11:59.947Z,8.70
2019-03-29T19:17:02.373Z,10.78
2019-03-29T19:22:04.698Z,17.97
2019-03-29T19:27:07.079Z,16.63
2019-03-29T19:32:09.457Z,22.17
2019-03-29T19:37:11.824Z,15.97
2019-03-29T19:42:16.757Z,17.83
2019-03-29T19:47:18.226Z,18.07
2019-03-29T19:52:20.665Z,17.00
2019-03-29T19:57:23.026Z,21.87
2019-03-29T20:02:25.514Z,17.17
2019-03-29T20:07:29.900Z,20.23
2019-03-29T20:12:32.217Z,17.57
2019-03-29T20:17:34.592Z,20.83
2019-03-29T20:22:36.894Z,20.65
2019-03-29T20:27:39.241Z,19.30
2019-03-29T20:32:41.568Z,16.90
2019-03-29T20:37:43.944Z,15.67
2019-03-29T20:42:46.374Z,18.10
2019-03-29T20:47:51.845Z,23.60
2019-03-29T20:52:52.840Z,20.87
2019-03-29T20:57:55.160Z,22.47
2019-03-29T21:02:57.914Z,16.33
2019-03-29T21:08:00.291Z,20.33
2019-03-29T21:13:02.674Z,20.33
2019-03-29T21:18:05.235Z,20.03
2019-03-29T21:23:07.690Z,24.00
2019-03-29T21:28:10.852Z,16.97
2019-03-29T21:33:13.307Z,19.13
2019-03-29T21:38:15.795Z,14.43
2019-03-29T21:43:18.123Z,19.03
2019-03-29T21:48:28.516Z,20.20
2019-03-29T21:53:24.648Z,18.43
2019-03-29T21:58:27.145Z,17.60
2019-03-29T22:03:29.698Z,21.27
2019-03-29T22:08:32.056Z,23.60
2019-03-29T22:13:34.366Z,24.43
2019-03-29T22:18:38.214Z,24.63
2019-03-29T22:23:40.767Z,30.00
2019-03-29T22:28:43.117Z,24.33
2019-03-29T22:33:45.638Z,33.03
2019-03-29T22:38:47.941Z,23.57
2019-03-29T22:43:50.256Z,24.67
2019-03-29T22:48:53.509Z,22.67
2019-03-29T22:53:55.942Z,25.47
2019-03-29T22:58:58.241Z,24.13
2019-03-29T23:04:03.496Z,21.67
2019-03-29T23:09:06.217Z,20.97
2019-03-29T23:14:08.499Z,30.57
2019-03-29T23:19:10.809Z,25.03
2019-03-29T23:24:13.097Z,28.13
2019-03-29T23:29:15.377Z,21.43
2019-03-29T23:34:17.710Z,20.40
2019-03-29T23:39:20.068Z,18.70
2019-03-29T23:44:22.342Z,22.70
2019-03-29T23:49:24.656Z,22.23
2019-03-29T23:54:26.907Z,20.13
2019-03-29T23:59:29.246Z,20.00
